sensor_id;sensor_type;location;lat;lon;timestamp;P1;durP1;ratioP1;P2;durP2;ratioP2
2956;SDS011;1488;51.548;7.222;2024-02-15T00:01:25;1.50;;;0.83;;
2956;SDS011;1488;51.548;7.222;2024-02-15T00:03:52;1.70;;;0.90;;
2956;SDS011;1488;51.548;7.222;2024-02-15T00:06:19;2.50;;;0.80;;
2956;SDS011;1488;51.548;7.222;2024-02-15T00:08:46;1.60;;;0.80;;
2956;SDS011;1488;51.548;7.222;2024-02-15T00:11:14;1.50;;;0.80;;
2956;SDS011;1488;51.548;7.222;2024-02-15T00:13:41;1.70;;;0.93;;
2956;SDS011;1488;51.548;7.222;2024-02-15T00:16:13;2.53;;;1.03;;
2956;SDS011;1488;51.548;7.222;2024-02-15T00:18:40;1.40;;;0.80;;
2956;SDS011;1488;51.548;7.222;2024-02-15T00:21:06;1.43;;;0.83;;
2956;SDS011;1488;51.548;7.222;2024-02-15T00:23:33;1.73;;;0.83;;
2956;SDS011;1488;51.548;7.222;2024-02-15T00:26:00;1.43;;;0.70;;
2956;SDS011;1488;51.548;7.222;2024-02-15T00:28:28;2.80;;;1.30;;
2956;SDS011;1488;51.548;7.222;2024-02-15T00:30:55;1.70;;;0.97;;
2956;SDS011;1488;51.548;7.222;2024-02-15T00:33:22;1.60;;;0.80;;
2956;SDS011;1488;51.548;7.222;2024-02-15T00:35:49;1.40;;;0.73;;
2956;SDS011;1488;51.548;7.222;2024-02-15T00:38:17;1.70;;;0.80;;
2956;SDS011;1488;51.548;7.222;2024-02-15T00:40:44;1.50;;;0.80;;
2956;SDS011;1488;51.548;7.222;2024-02-15T00:43:11;1.50;;;0.80;;
2956;SDS011;1488;51.548;7.222;2024-02-15T00:45:39;1.50;;;0.80;;
2956;SDS011;1488;51.548;7.222;2024-02-15T00:48:06;1.50;;;0.80;;
2956;SDS011;1488;51.548;7.222;2024-02-15T00:50:33;1.50;;;0.80;;
2956;SDS011;1488;51.548;7.222;2024-02-15T00:53:00;1.40;;;0.70;;
2956;SDS011;1488;51.548;7.222;2024-02-15T00:55:26;1.53;;;0.80;;
2956;SDS011;1488;51.548;7.222;2024-02-15T00:57:53;1.50;;;0.70;;
2956;SDS011;1488;51.548;7.222;2024-02-15T01:00:20;1.73;;;0.90;;
2956;SDS011;1488;51.548;7.222;2024-02-15T01:02:48;1.40;;;0.70;;
2956;SDS011;1488;51.548;7.222;2024-02-15T01:05:15;1.97;;;1.30;;
2956;SDS011;1488;51.548;7.222;2024-02-15T01:07:43;1.40;;;0.80;;
2956;SDS011;1488;51.548;7.222;2024-02-15T01:10:10;1.40;;;0.80;;
2956;SDS011;1488;51.548;7.222;2024-02-15T01:12:37;1.67;;;0.90;;
2956;SDS011;1488;51.548;7.222;2024-02-15T01:15:05;2.53;;;0.80;;
2956;SDS011;1488;51.548;7.222;2024-02-15T01:17:32;1.30;;;0.70;;
2956;SDS011;1488;51.548;7.222;2024-02-15T01:20:00;2.33;;;0.90;;
2956;SDS011;1488;51.548;7.222;2024-02-15T01:22:27;1.53;;;0.90;;
2956;SDS011;1488;51.548;7.222;2024-02-15T01:24:54;1.70;;;0.90;;
2956;SDS011;1488;51.548;7.222;2024-02-15T01:27:22;3.73;;;0.90;;
2956;SDS011;1488;51.548;7.222;2024-02-15T01:29:48;1.60;;;0.80;;
2956;SDS011;1488;51.548;7.222;2024-02-15T01:32:16;1.53;;;0.80;;
2956;SDS011;1488;51.548;7.222;2024-02-15T01:34:43;1.80;;;0.87;;
2956;SDS011;1488;51.548;7.222;2024-02-15T01:37:11;1.57;;;0.80;;
2956;SDS011;1488;51.548;7.222;2024-02-15T01:39:38;1.80;;;0.93;;
2956;SDS011;1488;51.548;7.222;2024-02-15T01:42:05;1.40;;;0.80;;
2956;SDS011;1488;51.548;7.222;2024-02-15T01:44:33;1.40;;;0.90;;
2956;SDS011;1488;51.548;7.222;2024-02-15T01:47:02;1.60;;;0.80;;
2956;SDS011;1488;51.548;7.222;2024-02-15T01:49:29;1.87;;;0.90;;
2956;SDS011;1488;51.548;7.222;2024-02-15T01:51:56;2.00;;;0.83;;
2956;SDS011;1488;51.548;7.222;2024-02-15T01:54:25;1.40;;;0.70;;
2956;SDS011;1488;51.548;7.222;2024-02-15T01:56:52;1.40;;;0.70;;
2956;SDS011;1488;51.548;7.222;2024-02-15T01:59:21;1.60;;;0.90;;
2956;SDS011;1488;51.548;7.222;2024-02-15T02:01:48;1.40;;;0.83;;
2956;SDS011;1488;51.548;7.222;2024-02-15T02:04:15;1.63;;;0.70;;
2956;SDS011;1488;51.548;7.222;2024-02-15T02:06:42;1.93;;;0.90;;
2956;SDS011;1488;51.548;7.222;2024-02-15T02:09:10;1.47;;;0.77;;
2956;SDS011;1488;51.548;7.222;2024-02-15T02:11:40;1.40;;;0.73;;
2956;SDS011;1488;51.548;7.222;2024-02-15T02:14:07;1.60;;;0.87;;
2956;SDS011;1488;51.548;7.222;2024-02-15T02:16:34;1.40;;;0.70;;
2956;SDS011;1488;51.548;7.222;2024-02-15T02:19:01;1.60;;;0.80;;
2956;SDS011;1488;51.548;7.222;2024-02-15T02:21:33;1.40;;;0.80;;
2956;SDS011;1488;51.548;7.222;2024-02-15T02:24:00;1.40;;;0.80;;
2956;SDS011;1488;51.548;7.222;2024-02-15T02:26:33;1.47;;;0.83;;
2956;SDS011;1488;51.548;7.222;2024-02-15T02:29:00;1.63;;;0.80;;
2956;SDS011;1488;51.548;7.222;2024-02-15T02:31:31;1.60;;;0.90;;
2956;SDS011;1488;51.548;7.222;2024-02-15T02:33:59;1.80;;;1.00;;
2956;SDS011;1488;51.548;7.222;2024-02-15T02:36:26;1.50;;;0.90;;
2956;SDS011;1488;51.548;7.222;2024-02-15T02:38:54;1.40;;;0.70;;
2956;SDS011;1488;51.548;7.222;2024-02-15T02:41:25;2.20;;;0.97;;
2956;SDS011;1488;51.548;7.222;2024-02-15T02:43:54;1.50;;;0.90;;
2956;SDS011;1488;51.548;7.222;2024-02-15T02:46:21;1.40;;;0.70;;
2956;SDS011;1488;51.548;7.222;2024-02-15T02:48:48;1.60;;;0.90;;
2956;SDS011;1488;51.548;7.222;2024-02-15T02:51:15;1.80;;;0.90;;
2956;SDS011;1488;51.548;7.222;2024-02-15T02:53:42;1.40;;;0.77;;
2956;SDS011;1488;51.548;7.222;2024-02-15T02:56:09;1.50;;;0.80;;
2956;SDS011;1488;51.548;7.222;2024-02-15T02:58:35;1.43;;;0.80;;
2956;SDS011;1488;51.548;7.222;2024-02-15T03:01:04;1.50;;;0.90;;
2956;SDS011;1488;51.548;7.222;2024-02-15T03:03:31;1.40;;;0.80;;
2956;SDS011;1488;51.548;7.222;2024-02-15T03:05:58;1.40;;;0.80;;
2956;SDS011;1488;51.548;7.222;2024-02-15T03:08:24;1.57;;;0.93;;
2956;SDS011;1488;51.548;7.222;2024-02-15T03:10:51;1.43;;;0.80;;
2956;SDS011;1488;51.548;7.222;2024-02-15T03:13:18;1.50;;;0.93;;
2956;SDS011;1488;51.548;7.222;2024-02-15T03:15:45;1.83;;;0.90;;
2956;SDS011;1488;51.548;7.222;2024-02-15T03:18:15;1.70;;;0.93;;
2956;SDS011;1488;51.548;7.222;2024-02-15T03:20:42;1.67;;;0.80;;
2956;SDS011;1488;51.548;7.222;2024-02-15T03:23:09;1.47;;;0.80;;
2956;SDS011;1488;51.548;7.222;2024-02-15T03:25:36;1.53;;;0.93;;
2956;SDS011;1488;51.548;7.222;2024-02-15T03:28:04;1.43;;;0.70;;
2956;SDS011;1488;51.548;7.222;2024-02-15T03:30:32;1.43;;;0.77;;
2956;SDS011;1488;51.548;7.222;2024-02-15T03:32:59;1.50;;;0.80;;
2956;SDS011;1488;51.548;7.222;2024-02-15T03:35:29;1.77;;;0.90;;
2956;SDS011;1488;51.548;7.222;2024-02-15T03:37:56;2.23;;;1.10;;
2956;SDS011;1488;51.548;7.222;2024-02-15T03:40:24;1.60;;;0.73;;
2956;SDS011;1488;51.548;7.222;2024-02-15T03:42:51;1.43;;;0.80;;
2956;SDS011;1488;51.548;7.222;2024-02-15T03:45:18;1.53;;;0.90;;
2956;SDS011;1488;51.548;7.222;2024-02-15T03:47:45;1.50;;;0.87;;
2956;SDS011;1488;51.548;7.222;2024-02-15T03:50:14;1.33;;;0.70;;
2956;SDS011;1488;51.548;7.222;2024-02-15T03:52:42;1.50;;;0.83;;
2956;SDS011;1488;51.548;7.222;2024-02-15T03:55:09;1.40;;;0.70;;
2956;SDS011;1488;51.548;7.222;2024-02-15T03:57:37;1.50;;;0.90;;
2956;SDS011;1488;51.548;7.222;2024-02-15T04:00:07;1.40;;;0.77;;
2956;SDS011;1488;51.548;7.222;2024-02-15T04:02:36;1.40;;;0.80;;
2956;SDS011;1488;51.548;7.222;2024-02-15T04:05:05;1.53;;;0.90;;
2956;SDS011;1488;51.548;7.222;2024-02-15T04:07:34;1.50;;;1.00;;
2956;SDS011;1488;51.548;7.222;2024-02-15T04:10:03;1.53;;;1.00;;
2956;SDS011;1488;51.548;7.222;2024-02-15T04:12:31;1.33;;;0.80;;
2956;SDS011;1488;51.548;7.222;2024-02-15T04:14:58;1.50;;;0.90;;
2956;SDS011;1488;51.548;7.222;2024-02-15T04:17:30;1.73;;;0.90;;
2956;SDS011;1488;51.548;7.222;2024-02-15T04:19:57;1.40;;;0.80;;
2956;SDS011;1488;51.548;7.222;2024-02-15T04:22:25;1.80;;;1.00;;
2956;SDS011;1488;51.548;7.222;2024-02-15T04:24:51;1.50;;;0.90;;
2956;SDS011;1488;51.548;7.222;2024-02-15T04:27:20;1.70;;;0.80;;
2956;SDS011;1488;51.548;7.222;2024-02-15T04:29:46;1.50;;;0.80;;
2956;SDS011;1488;51.548;7.222;2024-02-15T04:32:15;1.50;;;0.80;;
2956;SDS011;1488;51.548;7.222;2024-02-15T04:34:44;1.50;;;0.80;;
2956;SDS011;1488;51.548;7.222;2024-02-15T04:37:12;1.50;;;0.70;;
2956;SDS011;1488;51.548;7.222;2024-02-15T04:39:39;1.50;;;0.90;;
2956;SDS011;1488;51.548;7.222;2024-02-15T04:42:06;1.43;;;0.80;;
2956;SDS011;1488;51.548;7.222;2024-02-15T04:44:37;1.30;;;0.70;;
2956;SDS011;1488;51.548;7.222;2024-02-15T04:47:04;1.37;;;0.73;;
2956;SDS011;1488;51.548;7.222;2024-02-15T04:49:31;1.60;;;0.80;;
2956;SDS011;1488;51.548;7.222;2024-02-15T04:51:58;3.30;;;0.90;;
2956;SDS011;1488;51.548;7.222;2024-02-15T04:54:26;1.40;;;0.77;;
2956;SDS011;1488;51.548;7.222;2024-02-15T04:56:54;1.50;;;0.80;;
2956;SDS011;1488;51.548;7.222;2024-02-15T04:59:22;1.47;;;0.87;;
2956;SDS011;1488;51.548;7.222;2024-02-15T05:01:52;1.70;;;0.87;;
2956;SDS011;1488;51.548;7.222;2024-02-15T05:04:19;1.40;;;0.80;;
2956;SDS011;1488;51.548;7.222;2024-02-15T05:06:45;1.60;;;0.80;;
2956;SDS011;1488;51.548;7.222;2024-02-15T05:09:12;1.50;;;0.80;;
2956;SDS011;1488;51.548;7.222;2024-02-15T05:11:39;1.60;;;0.80;;
2956;SDS011;1488;51.548;7.222;2024-02-15T05:14:11;1.70;;;0.90;;
2956;SDS011;1488;51.548;7.222;2024-02-15T05:16:38;1.40;;;0.70;;
2956;SDS011;1488;51.548;7.222;2024-02-15T05:19:08;1.40;;;0.70;;
2956;SDS011;1488;51.548;7.222;2024-02-15T05:21:37;1.50;;;0.80;;
2956;SDS011;1488;51.548;7.222;2024-02-15T05:24:04;1.37;;;0.70;;
2956;SDS011;1488;51.548;7.222;2024-02-15T05:26:31;1.60;;;0.93;;
2956;SDS011;1488;51.548;7.222;2024-02-15T05:28:58;1.87;;;0.80;;
2956;SDS011;1488;51.548;7.222;2024-02-15T05:31:25;1.87;;;0.93;;
2956;SDS011;1488;51.548;7.222;2024-02-15T05:33:52;1.40;;;0.80;;
2956;SDS011;1488;51.548;7.222;2024-02-15T05:36:21;1.40;;;0.80;;
2956;SDS011;1488;51.548;7.222;2024-02-15T05:38:51;1.50;;;0.80;;
2956;SDS011;1488;51.548;7.222;2024-02-15T05:41:19;1.50;;;0.80;;
2956;SDS011;1488;51.548;7.222;2024-02-15T05:43:46;1.50;;;0.90;;
2956;SDS011;1488;51.548;7.222;2024-02-15T05:46:14;1.40;;;0.77;;
2956;SDS011;1488;51.548;7.222;2024-02-15T05:48:41;1.40;;;0.70;;
2956;SDS011;1488;51.548;7.222;2024-02-15T05:51:08;1.90;;;1.00;;
2956;SDS011;1488;51.548;7.222;2024-02-15T05:53:36;1.63;;;0.97;;
2956;SDS011;1488;51.548;7.222;2024-02-15T05:56:03;2.47;;;0.90;;
2956;SDS011;1488;51.548;7.222;2024-02-15T05:58:32;2.00;;;1.27;;
2956;SDS011;1488;51.548;7.222;2024-02-15T06:00:59;1.40;;;0.73;;
2956;SDS011;1488;51.548;7.222;2024-02-15T06:03:30;1.40;;;0.87;;
2956;SDS011;1488;51.548;7.222;2024-02-15T06:05:58;2.40;;;0.90;;
2956;SDS011;1488;51.548;7.222;2024-02-15T06:08:27;1.60;;;0.90;;
2956;SDS011;1488;51.548;7.222;2024-02-15T06:10:56;1.40;;;0.80;;
2956;SDS011;1488;51.548;7.222;2024-02-15T06:13:23;1.50;;;0.80;;
2956;SDS011;1488;51.548;7.222;2024-02-15T06:15:51;1.37;;;0.70;;
2956;SDS011;1488;51.548;7.222;2024-02-15T06:18:19;1.30;;;0.70;;
2956;SDS011;1488;51.548;7.222;2024-02-15T06:20:49;1.50;;;0.90;;
2956;SDS011;1488;51.548;7.222;2024-02-15T06:23:16;1.40;;;0.70;;
2956;SDS011;1488;51.548;7.222;2024-02-15T06:25:43;1.50;;;0.87;;
2956;SDS011;1488;51.548;7.222;2024-02-15T06:28:11;1.40;;;0.70;;
2956;SDS011;1488;51.548;7.222;2024-02-15T06:31:05;1.50;;;0.80;;
2956;SDS011;1488;51.548;7.222;2024-02-15T06:33:50;1.40;;;0.80;;
2956;SDS011;1488;51.548;7.222;2024-02-15T06:36:38;1.50;;;0.93;;
2956;SDS011;1488;51.548;7.222;2024-02-15T06:39:23;1.70;;;1.00;;
2956;SDS011;1488;51.548;7.222;2024-02-15T06:42:07;1.50;;;0.90;;
2956;SDS011;1488;51.548;7.222;2024-02-15T06:44:35;1.50;;;0.90;;
2956;SDS011;1488;51.548;7.222;2024-02-15T06:47:03;1.50;;;0.80;;
2956;SDS011;1488;51.548;7.222;2024-02-15T06:49:31;1.40;;;0.70;;
2956;SDS011;1488;51.548;7.222;2024-02-15T06:51:58;1.50;;;0.90;;
2956;SDS011;1488;51.548;7.222;2024-02-15T06:54:27;1.60;;;1.00;;
2956;SDS011;1488;51.548;7.222;2024-02-15T06:56:54;1.70;;;1.00;;
2956;SDS011;1488;51.548;7.222;2024-02-15T06:59:21;1.40;;;0.73;;
2956;SDS011;1488;51.548;7.222;2024-02-15T07:01:49;1.50;;;0.83;;
2956;SDS011;1488;51.548;7.222;2024-02-15T07:04:17;1.50;;;0.80;;
2956;SDS011;1488;51.548;7.222;2024-02-15T07:06:44;1.67;;;0.80;;
2956;SDS011;1488;51.548;7.222;2024-02-15T07:09:12;1.50;;;0.70;;
2956;SDS011;1488;51.548;7.222;2024-02-15T07:11:41;2.37;;;1.00;;
2956;SDS011;1488;51.548;7.222;2024-02-15T07:14:08;1.80;;;0.80;;
2956;SDS011;1488;51.548;7.222;2024-02-15T07:16:35;1.40;;;0.80;;
2956;SDS011;1488;51.548;7.222;2024-02-15T07:19:03;1.43;;;0.80;;
2956;SDS011;1488;51.548;7.222;2024-02-15T07:21:30;1.50;;;0.80;;
2956;SDS011;1488;51.548;7.222;2024-02-15T07:23:57;1.70;;;0.90;;
2956;SDS011;1488;51.548;7.222;2024-02-15T07:26:24;1.50;;;0.80;;
2956;SDS011;1488;51.548;7.222;2024-02-15T07:28:51;1.50;;;0.90;;
2956;SDS011;1488;51.548;7.222;2024-02-15T07:31:18;1.40;;;0.80;;
2956;SDS011;1488;51.548;7.222;2024-02-15T07:33:46;1.40;;;0.70;;
2956;SDS011;1488;51.548;7.222;2024-02-15T07:36:15;1.77;;;1.20;;
2956;SDS011;1488;51.548;7.222;2024-02-15T07:38:44;1.30;;;0.60;;
2956;SDS011;1488;51.548;7.222;2024-02-15T07:41:13;1.70;;;1.00;;
2956;SDS011;1488;51.548;7.222;2024-02-15T07:43:40;2.00;;;0.90;;
2956;SDS011;1488;51.548;7.222;2024-02-15T07:46:07;3.73;;;0.90;;
2956;SDS011;1488;51.548;7.222;2024-02-15T07:48:38;1.90;;;0.90;;
2956;SDS011;1488;51.548;7.222;2024-02-15T07:51:04;1.83;;;0.90;;
2956;SDS011;1488;51.548;7.222;2024-02-15T07:53:36;1.80;;;1.00;;
2956;SDS011;1488;51.548;7.222;2024-02-15T07:56:03;1.50;;;0.83;;
2956;SDS011;1488;51.548;7.222;2024-02-15T07:58:30;3.87;;;1.00;;
2956;SDS011;1488;51.548;7.222;2024-02-15T08:00:57;1.77;;;0.80;;
2956;SDS011;1488;51.548;7.222;2024-02-15T08:03:24;1.60;;;0.90;;
2956;SDS011;1488;51.548;7.222;2024-02-15T08:05:54;1.97;;;0.80;;
2956;SDS011;1488;51.548;7.222;2024-02-15T08:08:21;1.80;;;1.00;;
2956;SDS011;1488;51.548;7.222;2024-02-15T08:10:50;1.40;;;0.80;;
2956;SDS011;1488;51.548;7.222;2024-02-15T08:13:17;1.60;;;0.90;;
2956;SDS011;1488;51.548;7.222;2024-02-15T08:15:47;2.43;;;1.00;;
2956;SDS011;1488;51.548;7.222;2024-02-15T08:18:17;1.50;;;0.80;;
2956;SDS011;1488;51.548;7.222;2024-02-15T08:20:45;1.60;;;0.90;;
2956;SDS011;1488;51.548;7.222;2024-02-15T08:23:12;1.90;;;0.90;;
2956;SDS011;1488;51.548;7.222;2024-02-15T08:25:38;1.83;;;0.73;;
2956;SDS011;1488;51.548;7.222;2024-02-15T08:28:07;1.90;;;1.07;;
2956;SDS011;1488;51.548;7.222;2024-02-15T08:30:34;1.93;;;0.87;;
2956;SDS011;1488;51.548;7.222;2024-02-15T08:33:03;2.57;;;0.80;;
2956;SDS011;1488;51.548;7.222;2024-02-15T08:35:30;6.03;;;0.90;;
2956;SDS011;1488;51.548;7.222;2024-02-15T08:37:58;2.40;;;1.03;;
2956;SDS011;1488;51.548;7.222;2024-02-15T08:40:24;1.80;;;0.80;;
2956;SDS011;1488;51.548;7.222;2024-02-15T08:42:52;1.67;;;0.80;;
2956;SDS011;1488;51.548;7.222;2024-02-15T08:45:22;1.73;;;1.10;;
2956;SDS011;1488;51.548;7.222;2024-02-15T08:47:49;2.07;;;1.10;;
2956;SDS011;1488;51.548;7.222;2024-02-15T08:50:18;2.37;;;0.83;;
2956;SDS011;1488;51.548;7.222;2024-02-15T08:52:47;1.80;;;1.17;;
2956;SDS011;1488;51.548;7.222;2024-02-15T08:55:14;1.40;;;0.80;;
2956;SDS011;1488;51.548;7.222;2024-02-15T08:57:42;2.23;;;0.90;;
2956;SDS011;1488;51.548;7.222;2024-02-15T09:00:10;2.00;;;1.10;;
2956;SDS011;1488;51.548;7.222;2024-02-15T09:02:40;1.80;;;0.90;;
2956;SDS011;1488;51.548;7.222;2024-02-15T09:05:07;2.10;;;1.10;;
2956;SDS011;1488;51.548;7.222;2024-02-15T09:07:34;2.33;;;0.70;;
2956;SDS011;1488;51.548;7.222;2024-02-15T09:10:01;1.50;;;0.90;;
2956;SDS011;1488;51.548;7.222;2024-02-15T09:12:28;1.43;;;0.80;;
2956;SDS011;1488;51.548;7.222;2024-02-15T09:14:56;3.40;;;1.33;;
2956;SDS011;1488;51.548;7.222;2024-02-15T09:17:23;1.50;;;0.90;;
2956;SDS011;1488;51.548;7.222;2024-02-15T09:19:52;2.10;;;1.00;;
2956;SDS011;1488;51.548;7.222;2024-02-15T09:22:19;2.27;;;0.97;;
2956;SDS011;1488;51.548;7.222;2024-02-15T09:24:46;2.03;;;1.00;;
2956;SDS011;1488;51.548;7.222;2024-02-15T09:27:13;1.70;;;0.90;;
2956;SDS011;1488;51.548;7.222;2024-02-15T09:29:40;3.23;;;1.00;;
2956;SDS011;1488;51.548;7.222;2024-02-15T09:32:07;1.60;;;0.80;;
2956;SDS011;1488;51.548;7.222;2024-02-15T09:34:34;1.50;;;0.90;;
2956;SDS011;1488;51.548;7.222;2024-02-15T09:37:02;4.17;;;0.97;;
2956;SDS011;1488;51.548;7.222;2024-02-15T09:39:30;1.60;;;0.97;;
2956;SDS011;1488;51.548;7.222;2024-02-15T09:41:57;1.50;;;0.90;;
2956;SDS011;1488;51.548;7.222;2024-02-15T09:44:24;1.50;;;0.90;;
2956;SDS011;1488;51.548;7.222;2024-02-15T09:46:55;1.53;;;0.83;;
2956;SDS011;1488;51.548;7.222;2024-02-15T09:49:29;2.00;;;0.80;;
2956;SDS011;1488;51.548;7.222;2024-02-15T09:52:01;1.57;;;0.80;;
2956;SDS011;1488;51.548;7.222;2024-02-15T09:54:30;2.13;;;0.97;;
2956;SDS011;1488;51.548;7.222;2024-02-15T09:56:57;1.87;;;0.90;;
2956;SDS011;1488;51.548;7.222;2024-02-15T09:59:27;2.83;;;1.33;;
2956;SDS011;1488;51.548;7.222;2024-02-15T10:01:56;1.40;;;0.80;;
2956;SDS011;1488;51.548;7.222;2024-02-15T10:04:24;1.70;;;0.90;;
2956;SDS011;1488;51.548;7.222;2024-02-15T10:06:51;1.37;;;0.70;;
2956;SDS011;1488;51.548;7.222;2024-02-15T10:09:26;2.23;;;0.97;;
2956;SDS011;1488;51.548;7.222;2024-02-15T10:11:54;2.00;;;1.27;;
2956;SDS011;1488;51.548;7.222;2024-02-15T10:14:22;1.50;;;0.80;;
2956;SDS011;1488;51.548;7.222;2024-02-15T10:16:50;1.67;;;0.90;;
2956;SDS011;1488;51.548;7.222;2024-02-15T10:19:17;2.13;;;0.80;;
2956;SDS011;1488;51.548;7.222;2024-02-15T10:21:45;2.50;;;0.80;;
2956;SDS011;1488;51.548;7.222;2024-02-15T10:24:12;2.70;;;0.97;;
2956;SDS011;1488;51.548;7.222;2024-02-15T10:26:40;1.50;;;0.90;;
2956;SDS011;1488;51.548;7.222;2024-02-15T10:29:08;1.60;;;0.80;;
2956;SDS011;1488;51.548;7.222;2024-02-15T10:31:36;1.90;;;0.90;;
2956;SDS011;1488;51.548;7.222;2024-02-15T10:34:04;2.20;;;1.00;;
2956;SDS011;1488;51.548;7.222;2024-02-15T10:36:32;1.87;;;1.00;;
2956;SDS011;1488;51.548;7.222;2024-02-15T10:39:12;1.70;;;0.90;;
2956;SDS011;1488;51.548;7.222;2024-02-15T10:41:44;1.40;;;0.80;;
2956;SDS011;1488;51.548;7.222;2024-02-15T10:44:13;2.20;;;1.00;;
2956;SDS011;1488;51.548;7.222;2024-02-15T10:46:43;2.90;;;1.00;;
2956;SDS011;1488;51.548;7.222;2024-02-15T10:49:12;1.60;;;0.83;;
2956;SDS011;1488;51.548;7.222;2024-02-15T10:51:41;1.50;;;0.80;;
2956;SDS011;1488;51.548;7.222;2024-02-15T10:54:11;1.77;;;0.93;;
2956;SDS011;1488;51.548;7.222;2024-02-15T10:56:42;1.60;;;0.90;;
2956;SDS011;1488;51.548;7.222;2024-02-15T10:59:16;1.60;;;1.00;;
2956;SDS011;1488;51.548;7.222;2024-02-15T11:01:45;1.70;;;0.80;;
2956;SDS011;1488;51.548;7.222;2024-02-15T11:04:14;1.87;;;0.90;;
2956;SDS011;1488;51.548;7.222;2024-02-15T11:06:42;2.23;;;0.87;;
2956;SDS011;1488;51.548;7.222;2024-02-15T11:09:10;1.70;;;1.00;;
2956;SDS011;1488;51.548;7.222;2024-02-15T11:11:40;1.77;;;0.90;;
2956;SDS011;1488;51.548;7.222;2024-02-15T11:14:29;2.53;;;0.87;;
2956;SDS011;1488;51.548;7.222;2024-02-15T11:16:57;3.10;;;1.20;;
2956;SDS011;1488;51.548;7.222;2024-02-15T11:19:42;1.53;;;1.00;;
2956;SDS011;1488;51.548;7.222;2024-02-15T11:22:14;2.20;;;1.20;;
2956;SDS011;1488;51.548;7.222;2024-02-15T11:24:48;2.70;;;1.20;;
2956;SDS011;1488;51.548;7.222;2024-02-15T11:27:26;1.60;;;0.87;;
2956;SDS011;1488;51.548;7.222;2024-02-15T11:29:55;2.63;;;1.30;;
2956;SDS011;1488;51.548;7.222;2024-02-15T11:32:37;2.50;;;1.10;;
2956;SDS011;1488;51.548;7.222;2024-02-15T11:35:05;2.90;;;1.20;;
2956;SDS011;1488;51.548;7.222;2024-02-15T11:37:52;3.27;;;1.80;;
2956;SDS011;1488;51.548;7.222;2024-02-15T11:40:29;2.33;;;1.50;;
2956;SDS011;1488;51.548;7.222;2024-02-15T11:43:50;2.10;;;1.20;;
2956;SDS011;1488;51.548;7.222;2024-02-15T11:46:28;2.40;;;1.60;;
2956;SDS011;1488;51.548;7.222;2024-02-15T11:48:57;2.17;;;1.10;;
2956;SDS011;1488;51.548;7.222;2024-02-15T11:51:26;2.90;;;1.57;;
2956;SDS011;1488;51.548;7.222;2024-02-15T11:54:00;3.83;;;1.50;;
2956;SDS011;1488;51.548;7.222;2024-02-15T11:56:32;3.03;;;1.50;;
2956;SDS011;1488;51.548;7.222;2024-02-15T11:59:16;5.93;;;1.80;;
2956;SDS011;1488;51.548;7.222;2024-02-15T12:01:55;6.17;;;1.33;;
2956;SDS011;1488;51.548;7.222;2024-02-15T12:04:39;5.00;;;1.50;;
2956;SDS011;1488;51.548;7.222;2024-02-15T12:07:24;2.40;;;1.20;;
2956;SDS011;1488;51.548;7.222;2024-02-15T12:10:14;5.37;;;1.50;;
2956;SDS011;1488;51.548;7.222;2024-02-15T12:12:59;2.70;;;1.50;;
2956;SDS011;1488;51.548;7.222;2024-02-15T12:15:55;2.53;;;1.33;;
2956;SDS011;1488;51.548;7.222;2024-02-15T12:18:41;2.30;;;1.20;;
2956;SDS011;1488;51.548;7.222;2024-02-15T12:21:09;5.37;;;1.60;;
2956;SDS011;1488;51.548;7.222;2024-02-15T12:23:40;12.37;;;2.43;;
2956;SDS011;1488;51.548;7.222;2024-02-15T12:26:07;6.43;;;1.90;;
2956;SDS011;1488;51.548;7.222;2024-02-15T12:28:34;7.70;;;1.80;;
2956;SDS011;1488;51.548;7.222;2024-02-15T12:31:01;5.03;;;1.70;;
2956;SDS011;1488;51.548;7.222;2024-02-15T12:33:31;6.70;;;1.73;;
2956;SDS011;1488;51.548;7.222;2024-02-15T12:36:06;6.30;;;2.00;;
2956;SDS011;1488;51.548;7.222;2024-02-15T12:38:34;4.50;;;2.30;;
2956;SDS011;1488;51.548;7.222;2024-02-15T12:41:02;4.43;;;1.80;;
2956;SDS011;1488;51.548;7.222;2024-02-15T12:43:42;5.30;;;1.97;;
2956;SDS011;1488;51.548;7.222;2024-02-15T12:46:10;6.10;;;1.80;;
2956;SDS011;1488;51.548;7.222;2024-02-15T12:48:37;12.23;;;1.93;;
2956;SDS011;1488;51.548;7.222;2024-02-15T12:51:14;4.80;;;2.03;;
2956;SDS011;1488;51.548;7.222;2024-02-15T12:53:41;12.80;;;2.17;;
2956;SDS011;1488;51.548;7.222;2024-02-15T12:56:08;9.53;;;2.73;;
2956;SDS011;1488;51.548;7.222;2024-02-15T12:58:35;4.33;;;1.70;;
2956;SDS011;1488;51.548;7.222;2024-02-15T13:01:04;2.73;;;1.40;;
2956;SDS011;1488;51.548;7.222;2024-02-15T13:03:30;4.67;;;1.33;;
2956;SDS011;1488;51.548;7.222;2024-02-15T13:06:00;2.40;;;1.40;;
2956;SDS011;1488;51.548;7.222;2024-02-15T13:08:29;5.80;;;1.83;;
2956;SDS011;1488;51.548;7.222;2024-02-15T13:10:56;3.00;;;1.40;;
2956;SDS011;1488;51.548;7.222;2024-02-15T13:13:23;4.40;;;1.80;;
2956;SDS011;1488;51.548;7.222;2024-02-15T13:15:50;2.10;;;1.30;;
2956;SDS011;1488;51.548;7.222;2024-02-15T13:18:17;3.67;;;1.73;;
2956;SDS011;1488;51.548;7.222;2024-02-15T13:20:46;6.43;;;1.73;;
2956;SDS011;1488;51.548;7.222;2024-02-15T13:23:17;2.50;;;1.53;;
2956;SDS011;1488;51.548;7.222;2024-02-15T13:25:48;7.70;;;1.77;;
2956;SDS011;1488;51.548;7.222;2024-02-15T13:28:17;4.50;;;1.93;;
2956;SDS011;1488;51.548;7.222;2024-02-15T13:30:44;3.90;;;1.80;;
2956;SDS011;1488;51.548;7.222;2024-02-15T13:33:14;2.67;;;1.27;;
2956;SDS011;1488;51.548;7.222;2024-02-15T13:35:41;2.83;;;1.30;;
2956;SDS011;1488;51.548;7.222;2024-02-15T13:38:08;2.97;;;1.30;;
2956;SDS011;1488;51.548;7.222;2024-02-15T13:40:39;2.93;;;1.47;;
2956;SDS011;1488;51.548;7.222;2024-02-15T13:43:08;4.83;;;1.83;;
2956;SDS011;1488;51.548;7.222;2024-02-15T13:45:38;3.90;;;1.43;;
2956;SDS011;1488;51.548;7.222;2024-02-15T13:48:05;6.23;;;1.27;;
2956;SDS011;1488;51.548;7.222;2024-02-15T13:50:34;3.33;;;1.70;;
2956;SDS011;1488;51.548;7.222;2024-02-15T13:53:01;3.13;;;1.57;;
2956;SDS011;1488;51.548;7.222;2024-02-15T13:55:28;2.43;;;1.60;;
2956;SDS011;1488;51.548;7.222;2024-02-15T13:57:55;6.10;;;1.40;;
2956;SDS011;1488;51.548;7.222;2024-02-15T14:00:24;3.03;;;1.60;;
2956;SDS011;1488;51.548;7.222;2024-02-15T14:02:55;1.90;;;1.20;;
2956;SDS011;1488;51.548;7.222;2024-02-15T14:05:25;4.30;;;1.73;;
2956;SDS011;1488;51.548;7.222;2024-02-15T14:07:54;12.40;;;2.67;;
2956;SDS011;1488;51.548;7.222;2024-02-15T14:10:23;3.37;;;1.90;;
2956;SDS011;1488;51.548;7.222;2024-02-15T14:12:51;2.90;;;1.40;;
2956;SDS011;1488;51.548;7.222;2024-02-15T14:15:20;3.20;;;1.37;;
2956;SDS011;1488;51.548;7.222;2024-02-15T14:17:48;8.20;;;1.63;;
2956;SDS011;1488;51.548;7.222;2024-02-15T14:20:15;4.20;;;1.17;;
2956;SDS011;1488;51.548;7.222;2024-02-15T14:22:43;5.37;;;1.20;;
2956;SDS011;1488;51.548;7.222;2024-02-15T14:25:14;3.90;;;1.30;;
2956;SDS011;1488;51.548;7.222;2024-02-15T14:27:41;3.87;;;1.23;;
2956;SDS011;1488;51.548;7.222;2024-02-15T14:30:08;3.40;;;1.30;;
2956;SDS011;1488;51.548;7.222;2024-02-15T14:32:54;3.03;;;1.50;;
2956;SDS011;1488;51.548;7.222;2024-02-15T14:35:28;2.30;;;1.33;;
2956;SDS011;1488;51.548;7.222;2024-02-15T14:37:59;3.23;;;1.20;;
2956;SDS011;1488;51.548;7.222;2024-02-15T14:40:28;5.60;;;1.23;;
2956;SDS011;1488;51.548;7.222;2024-02-15T14:42:55;2.13;;;1.17;;
2956;SDS011;1488;51.548;7.222;2024-02-15T14:45:21;3.70;;;1.20;;
2956;SDS011;1488;51.548;7.222;2024-02-15T14:47:48;6.67;;;1.43;;
2956;SDS011;1488;51.548;7.222;2024-02-15T14:50:16;2.13;;;1.13;;
2956;SDS011;1488;51.548;7.222;2024-02-15T14:52:45;3.50;;;1.40;;
2956;SDS011;1488;51.548;7.222;2024-02-15T14:55:13;2.53;;;0.90;;
2956;SDS011;1488;51.548;7.222;2024-02-15T14:57:39;1.73;;;1.00;;
2956;SDS011;1488;51.548;7.222;2024-02-15T15:00:07;2.20;;;1.10;;
2956;SDS011;1488;51.548;7.222;2024-02-15T15:02:37;1.83;;;1.10;;
2956;SDS011;1488;51.548;7.222;2024-02-15T15:05:04;1.93;;;1.10;;
2956;SDS011;1488;51.548;7.222;2024-02-15T15:07:50;3.40;;;1.13;;
2956;SDS011;1488;51.548;7.222;2024-02-15T15:10:35;6.60;;;1.50;;
2956;SDS011;1488;51.548;7.222;2024-02-15T15:13:19;2.73;;;1.30;;
2956;SDS011;1488;51.548;7.222;2024-02-15T15:15:46;3.80;;;1.43;;
2956;SDS011;1488;51.548;7.222;2024-02-15T15:18:13;4.40;;;1.20;;
2956;SDS011;1488;51.548;7.222;2024-02-15T15:20:40;7.07;;;1.43;;
2956;SDS011;1488;51.548;7.222;2024-02-15T15:23:08;2.70;;;1.20;;
2956;SDS011;1488;51.548;7.222;2024-02-15T15:25:35;5.20;;;2.00;;
2956;SDS011;1488;51.548;7.222;2024-02-15T15:28:03;1.80;;;0.90;;